Bourbonnais, IL (60914)

4:57 AM CST on December 10, 2016 (GMT -0600)
Dennison Drive | | Change Station

Elev 728 ft 41.17 °N, 87.88 °W | Updated 13 seconds ago

Overcast
Overcast
21.2 °F
Feels Like 17 °F
N
3.1
Wind Variable Wind from West
Gusts 9.3 mph

Today
High -- | Low -- °F
--% Chance of Precip.
Yesterday
High -- | Low -- °F
Precip. -- in
Pressure 30.54 in
Visibility 10.0 miles
Clouds Overcast 2300 ft
Windchill 17 °F
Dew Point 16 °F
Humidity 82%
Rainfall 0.00 in
Snow Depth Not available.
7:06 AM 4:22 PM
Waxing Gibbous, 82% visible
METAR KIKK 101035Z AUTO 26007KT 10SM UP OVC023 M05/M09 A3054 RMK AO2 T10531090
Pressure 30.54 in
Visibility 10.0 miles
Clouds Overcast 2300 ft
Windchill 17 °F
Dew Point 16 °F
Humidity 82%
Rainfall 0.00 in
Snow Depth Not available.
7:06 AM 4:22 PM
Waxing Gibbous, 82% visible
METAR KIKK 101035Z AUTO 26007KT 10SM UP OVC023 M05/M09 A3054 RMK AO2 T10531090

10-Day Weather Forecast

Almanac

Astronomy

Dec. 10, 2016 Rise Set
Actual Time
Civil Twilight
Nautical Twilight
Astronomical Twilight
Moon
Length of Visible Light
Length of Day
Tomorrow will be .
, % of the Moon is Illuminated

Today's Extremes

State Highs State Lows

Community

WunderPhotos

Upload Photos

1,956,536 photos uploaded!

WunderBlog® & News

Nearby

Air Quality

  Air Quality AQ Index Pollutant
Not available.

Snow Depth

Station Depth Elevation

Earthquake Activity

City Distance Mag. Time & Date
Minimum magnitude displayed is 2.5.

Coastal Water Temperatures

Place Temperature

Stations

Nearby Weather Stations

Station Location Temp. Windchill Dew Point Humidity Wind Precip. Elev Updated Type
                   

Watches & Warnings

There are currently no watches in effect.